createdAt,value
2019-02-21T00:01:34.772Z,96814.22
2019-02-21T00:04:04.907Z,96818.45
2019-02-21T00:06:31.183Z,96821.53
2019-02-21T00:08:57.358Z,96818.55
2019-02-21T00:11:23.508Z,96825.39
2019-02-21T00:13:49.646Z,96827.06
2019-02-21T00:16:15.908Z,96823.13
2019-02-21T00:18:42.004Z,96823.59
2019-02-21T00:21:08.314Z,96828.92
2019-02-21T00:23:37.885Z,96824.34
2019-02-21T00:26:08.794Z,96825.19
2019-02-21T00:28:34.922Z,96835.55
2019-02-21T00:31:01.170Z,96834.05
2019-02-21T00:33:30.797Z,96828.92
2019-02-21T00:35:56.996Z,96836.77
2019-02-21T00:38:23.110Z,96839.52
2019-02-21T00:40:49.342Z,96838.41
2019-02-21T00:43:15.394Z,96842.89
2019-02-21T00:45:45.493Z,96840.93
2019-02-21T00:48:14.866Z,96850.19
2019-02-21T00:50:47.191Z,96851.59
2019-02-21T00:53:13.274Z,96846.75
2019-02-21T00:55:39.496Z,96850.08
2019-02-21T00:58:05.585Z,96848.88
2019-02-21T01:00:31.792Z,96842.92
2019-02-21T01:02:58.928Z,96849.27
2019-02-21T01:05:25.116Z,96851.36
2019-02-21T01:07:51.278Z,96862.02
2019-02-21T01:10:17.424Z,96863.41
2019-02-21T01:12:43.551Z,96865.64
2019-02-21T01:15:09.741Z,96863.13
2019-02-21T01:17:35.899Z,96869.66
2019-02-21T01:20:05.859Z,96864.92
2019-02-21T01:22:31.953Z,96868.55
2019-02-21T01:24:58.166Z,96867.82
2019-02-21T01:27:24.263Z,96866.02
2019-02-21T01:29:53.457Z,96865.20
2019-02-21T01:32:20.945Z,96860.53
2019-02-21T01:34:48.229Z,96857.92
2019-02-21T01:37:15.871Z,96855.30
2019-02-21T01:39:42.080Z,96854.00
2019-02-21T01:42:11.054Z,96852.69
2019-02-21T01:44:37.384Z,96853.80
2019-02-21T01:47:03.600Z,96851.84
2019-02-21T01:49:30.811Z,96850.05
2019-02-21T01:51:56.994Z,96850.24
2019-02-21T01:54:23.120Z,96850.73
2019-02-21T01:56:49.329Z,96847.92
2019-02-21T01:59:15.447Z,96841.55
2019-02-21T02:01:43.003Z,96836.42
2019-02-21T02:04:09.100Z,96840.90
2019-02-21T02:06:35.314Z,96836.97
2019-02-21T02:09:01.402Z,96834.16
2019-02-21T02:11:29.501Z,96835.57
2019-02-21T02:13:56.803Z,96832.34
2019-02-21T02:16:22.998Z,96835.14
2019-02-21T02:18:49.227Z,96832.63
2019-02-21T02:21:15.418Z,96827.12
2019-02-21T02:23:45.226Z,96838.23
2019-02-21T02:26:11.558Z,96836.56
2019-02-21T02:28:37.735Z,96826.41
2019-02-21T02:31:03.953Z,96835.19
2019-02-21T02:33:31.759Z,96830.25
2019-02-21T02:35:58.022Z,96835.08
2019-02-21T02:38:24.215Z,96823.81
2019-02-21T02:40:50.464Z,96827.34
2019-02-21T02:43:16.718Z,96832.79
2019-02-21T02:45:42.961Z,96826.72
2019-02-21T02:48:09.248Z,96831.48
2019-02-21T02:50:35.349Z,96831.67
2019-02-21T02:53:05.447Z,96832.31
2019-02-21T02:55:31.603Z,96835.88
2019-02-21T02:57:58.019Z,96834.93
2019-02-21T03:00:24.204Z,96835.03
2019-02-21T03:02:50.400Z,96826.44
2019-02-21T03:05:16.515Z,96830.35
2019-02-21T03:07:42.755Z,96821.97
2019-02-21T03:10:10.659Z,96819.62
2019-02-21T03:12:36.856Z,96816.72
2019-02-21T03:15:04.465Z,96810.36
2019-02-21T03:17:33.943Z,96803.53
2019-02-21T03:20:00.035Z,96798.97
2019-02-21T03:22:26.332Z,96795.31
2019-02-21T03:24:52.430Z,96799.33
2019-02-21T03:27:18.738Z,96806.34
2019-02-21T03:29:44.837Z,96802.33
2019-02-21T03:32:11.068Z,96810.62
2019-02-21T03:34:37.312Z,96799.33
2019-02-21T03:37:05.631Z,96809.05
2019-02-21T03:39:32.024Z,96812.39
2019-02-21T03:42:01.101Z,96803.05
2019-02-21T03:44:27.343Z,96804.66
2019-02-21T03:46:53.627Z,96796.61
2019-02-21T03:49:19.895Z,96797.63
2019-02-21T03:51:46.058Z,96794.43
2019-02-21T03:54:13.084Z,96795.08
2019-02-21T03:56:39.348Z,96796.66
2019-02-21T03:59:05.699Z,96801.13
2019-02-21T04:01:31.889Z,96801.97
2019-02-21T04:03:58.108Z,96803.91
2019-02-21T04:06:24.209Z,96812.14
2019-02-21T04:08:50.438Z,96809.42
2019-02-21T04:11:16.550Z,96814.91
2019-02-21T04:13:44.112Z,96820.89
2019-02-21T04:16:10.235Z,96817.23
2019-02-21T04:18:36.492Z,96828.64
2019-02-21T04:21:02.705Z,96828.73
2019-02-21T04:23:28.912Z,96818.90
2019-02-21T04:25:55.154Z,96822.82
2019-02-21T04:28:23.929Z,96822.36
2019-02-21T04:30:50.037Z,96820.86
2019-02-21T04:33:16.227Z,96824.78
2019-02-21T04:35:42.399Z,96828.61
2019-02-21T04:38:08.687Z,96826.45
2019-02-21T04:40:34.805Z,96831.67
2019-02-21T04:43:01.095Z,96830.96
2019-02-21T04:45:27.183Z,96827.86
2019-02-21T04:47:53.378Z,96828.61
2019-02-21T04:50:19.466Z,96830.02
2019-02-21T04:52:48.034Z,96825.34
2019-02-21T04:55:14.970Z,96825.53
2019-02-21T04:57:41.174Z,96831.78
2019-02-21T05:00:12.007Z,96833.17
2019-02-21T05:02:38.205Z,96832.48
2019-02-21T05:05:04.923Z,96836.11
2019-02-21T05:07:34.710Z,96824.70
2019-02-21T05:10:03.669Z,96823.88
2019-02-21T05:12:30.199Z,96827.12
2019-02-21T05:14:56.473Z,96825.89
2019-02-21T05:17:22.729Z,96814.22
2019-02-21T05:19:49.071Z,96820.02
2019-02-21T05:22:15.332Z,96813.58
2019-02-21T05:24:41.496Z,96814.42
2019-02-21T05:27:09.667Z,96814.58
2019-02-21T05:29:35.946Z,96816.44
2019-02-21T05:32:20.656Z,96824.24
2019-02-21T05:35:05.361Z,96823.48
2019-02-21T05:37:42.659Z,96823.63
2019-02-21T05:40:10.912Z,96820.34
2019-02-21T05:42:39.298Z,96822.86
2019-02-21T05:45:11.322Z,96826.95
2019-02-21T05:47:43.287Z,96828.41
2019-02-21T05:50:31.760Z,96823.06
2019-02-21T05:53:09.869Z,96824.17
2019-02-21T05:55:40.870Z,96826.44
2019-02-21T05:58:08.943Z,96831.11
2019-02-21T06:00:55.553Z,96833.52
2019-02-21T06:03:24.804Z,96840.67
2019-02-21T06:05:56.020Z,96838.34
2019-02-21T06:08:25.095Z,96843.47
2019-02-21T06:10:59.157Z,96845.14
2019-02-21T06:13:48.751Z,96848.32
2019-02-21T06:16:22.654Z,96849.42
2019-02-21T06:18:50.667Z,96851.94
2019-02-21T06:21:18.775Z,96855.13
2019-02-21T06:23:50.145Z,96855.72
2019-02-21T06:26:27.682Z,96862.27
2019-02-21T06:28:56.224Z,96859.75
2019-02-21T06:31:22.464Z,96862.92
2019-02-21T06:33:49.528Z,96863.78
2019-02-21T06:36:15.953Z,96867.91
2019-02-21T06:38:42.289Z,96867.66
2019-02-21T06:41:08.403Z,96869.52
2019-02-21T06:43:35.033Z,96865.05
2019-02-21T06:46:02.113Z,96864.05
2019-02-21T06:48:28.446Z,96860.42
2019-02-21T06:50:54.683Z,96867.66
2019-02-21T06:53:21.988Z,96855.89
2019-02-21T06:55:48.179Z,96854.29
2019-02-21T06:58:14.465Z,96862.73
2019-02-21T07:00:40.975Z,96858.80
2019-02-21T07:03:15.524Z,96853.08
2019-02-21T07:05:36.963Z,96855.03
2019-02-21T07:08:03.388Z,96859.66
2019-02-21T07:10:29.693Z,96856.08
2019-02-21T07:12:56.726Z,96858.44
2019-02-21T07:15:23.623Z,96855.41
2019-02-21T07:17:49.932Z,96858.32
2019-02-21T07:20:17.201Z,96854.58
2019-02-21T07:22:43.488Z,96857.23
2019-02-21T07:25:24.000Z,96859.97
2019-02-21T07:27:50.259Z,96866.35
2019-02-21T07:30:20.195Z,96862.53
2019-02-21T07:32:45.348Z,96868.45
2019-02-21T07:35:11.544Z,96868.97
2019-02-21T07:37:37.922Z,96861.06
2019-02-21T07:40:05.746Z,96848.45
2019-02-21T07:42:32.733Z,96843.94
2019-02-21T07:44:59.890Z,96850.17
2019-02-21T07:47:26.249Z,96847.44
2019-02-21T07:49:52.413Z,96845.80
2019-02-21T07:52:18.577Z,96844.84
2019-02-21T07:54:44.785Z,96857.30
2019-02-21T07:57:11.875Z,96859.70
2019-02-21T07:59:38.385Z,96859.27
2019-02-21T08:02:04.877Z,96852.75
2019-02-21T08:04:31.782Z,96863.27
2019-02-21T08:06:58.235Z,96857.24
2019-02-21T08:09:27.658Z,96866.46
2019-02-21T08:11:53.059Z,96865.67
2019-02-21T08:14:19.299Z,96868.35
2019-02-21T08:16:45.491Z,96870.41
2019-02-21T08:19:11.642Z,96875.20
2019-02-21T08:21:37.870Z,96879.45
2019-02-21T08:24:04.053Z,96880.08
2019-02-21T08:26:30.221Z,96882.70
2019-02-21T08:28:56.451Z,96877.83
2019-02-21T08:31:22.582Z,96886.45
2019-02-21T08:33:58.357Z,96882.27
2019-02-21T08:36:21.788Z,96889.33
2019-02-21T08:38:47.992Z,96892.80
2019-02-21T08:41:14.674Z,96893.53
2019-02-21T08:43:41.071Z,96893.76
2019-02-21T08:46:07.173Z,96891.23
2019-02-21T08:48:33.545Z,96890.18
2019-02-21T08:50:59.657Z,96901.16
2019-02-21T08:53:27.972Z,96905.48
2019-02-21T08:55:55.932Z,96901.53
2019-02-21T08:58:22.050Z,96910.12
2019-02-21T09:00:48.241Z,96907.37
2019-02-21T09:03:14.410Z,96910.48
2019-02-21T09:05:40.666Z,96905.22
2019-02-21T09:08:06.904Z,96903.06
2019-02-21T09:10:33.084Z,96907.39
2019-02-21T09:12:59.331Z,96915.39
2019-02-21T09:15:25.433Z,96914.91
2019-02-21T09:17:54.032Z,96915.50
2019-02-21T09:20:19.700Z,96924.00
2019-02-21T09:22:45.895Z,96922.56
2019-02-21T09:25:13.763Z,96924.81
2019-02-21T09:27:39.947Z,96925.89
2019-02-21T09:30:13.099Z,96924.21
2019-02-21T09:32:42.039Z,96920.97
2019-02-21T09:35:08.323Z,96927.41
2019-02-21T09:37:34.534Z,96925.28
2019-02-21T09:40:00.649Z,96924.19
2019-02-21T09:42:26.865Z,96925.62
2019-02-21T09:44:52.969Z,96931.86
2019-02-21T09:47:22.765Z,96934.11
2019-02-21T09:49:49.069Z,96932.92
2019-02-21T09:52:15.349Z,96935.45
2019-02-21T09:54:48.297Z,96931.50
2019-02-21T09:57:14.530Z,96927.93
2019-02-21T09:59:40.629Z,96929.69
2019-02-21T10:02:10.232Z,96924.19
2019-02-21T10:04:36.345Z,96927.39
2019-02-21T10:07:07.479Z,96923.80
2019-02-21T10:09:33.561Z,96923.18
2019-02-21T10:11:59.778Z,96919.67
2019-02-21T10:14:26.685Z,96924.66
2019-02-21T10:16:55.372Z,96913.41
2019-02-21T10:19:21.486Z,96914.22
2019-02-21T10:21:47.727Z,96917.66
2019-02-21T10:24:17.295Z,96917.38
2019-02-21T10:26:47.206Z,96919.13
2019-02-21T10:29:17.163Z,96919.42
2019-02-21T10:31:43.342Z,96917.96
2019-02-21T10:34:09.575Z,96924.55
2019-02-21T10:36:40.367Z,96919.02
2019-02-21T10:39:06.514Z,96919.58
2019-02-21T10:41:35.979Z,96908.97
2019-02-21T10:44:02.139Z,96912.91
2019-02-21T10:46:30.759Z,96914.55
2019-02-21T10:48:56.362Z,96909.80
2019-02-21T10:51:23.535Z,96905.06
2019-02-21T10:53:49.683Z,96905.27
2019-02-21T10:56:17.314Z,96901.58
2019-02-21T10:58:43.677Z,96898.87
2019-02-21T11:01:13.236Z,96901.41
2019-02-21T11:03:42.344Z,96900.00
2019-02-21T11:06:08.517Z,96891.72
2019-02-21T11:08:34.693Z,96891.56
2019-02-21T11:11:06.196Z,96893.02
2019-02-21T11:13:32.367Z,96886.81
2019-02-21T11:15:58.640Z,96888.52
2019-02-21T11:18:24.893Z,96882.30
2019-02-21T11:20:54.268Z,96886.34
2019-02-21T11:23:22.813Z,96878.44
2019-02-21T11:25:49.054Z,96876.61
2019-02-21T11:28:18.369Z,96872.59
2019-02-21T11:30:44.598Z,96869.94
2019-02-21T11:33:13.626Z,96870.63
2019-02-21T11:35:40.120Z,96868.41
2019-02-21T11:38:06.345Z,96862.56
2019-02-21T11:40:32.687Z,96854.40
2019-02-21T11:43:03.886Z,96849.61
2019-02-21T11:45:33.293Z,96843.32
2019-02-21T11:47:59.533Z,96846.66
2019-02-21T11:50:25.756Z,96843.70
2019-02-21T11:52:51.999Z,96846.11
2019-02-21T11:55:20.462Z,96847.25
2019-02-21T11:57:46.650Z,96833.30
2019-02-21T12:00:19.382Z,96846.23
2019-02-21T12:02:47.555Z,96833.15
2019-02-21T12:05:17.397Z,96830.30
2019-02-21T12:07:47.723Z,96837.74
2019-02-21T12:10:13.883Z,96832.70
2019-02-21T12:12:40.055Z,96829.50
2019-02-21T12:15:11.905Z,96833.69
2019-02-21T12:17:38.113Z,96828.03
2019-02-21T12:20:08.574Z,96830.87
2019-02-21T12:22:34.790Z,96826.26
2019-02-21T12:25:00.947Z,96823.41
2019-02-21T12:27:27.098Z,96819.65
2019-02-21T12:29:53.321Z,96825.05
2019-02-21T12:32:19.979Z,96829.27
2019-02-21T12:34:46.182Z,96827.80
2019-02-21T12:37:12.301Z,96827.95
2019-02-21T12:39:38.526Z,96834.19
2019-02-21T12:42:04.704Z,96833.01
2019-02-21T12:44:32.763Z,96831.02
2019-02-21T12:46:58.921Z,96824.23
2019-02-21T12:49:27.107Z,96825.81
2019-02-21T12:51:57.344Z,96831.47
2019-02-21T12:54:24.721Z,96824.93
2019-02-21T12:56:51.500Z,96819.92
2019-02-21T12:59:17.747Z,96813.83
2019-02-21T13:01:45.046Z,96813.84
2019-02-21T13:04:11.305Z,96809.47
2019-02-21T13:06:37.488Z,96814.98
2019-02-21T13:09:04.261Z,96816.09
2019-02-21T13:11:32.135Z,96818.52
2019-02-21T13:13:59.104Z,96822.21
2019-02-21T13:16:25.271Z,96815.97
2019-02-21T13:18:51.572Z,96806.23
2019-02-21T13:21:17.698Z,96804.06
2019-02-21T13:23:45.125Z,96800.16
2019-02-21T13:26:12.319Z,96801.93
2019-02-21T13:28:38.616Z,96805.12
2019-02-21T13:31:04.773Z,96802.48
2019-02-21T13:33:30.997Z,96810.27
2019-02-21T13:35:59.320Z,96798.06
2019-02-21T13:38:25.552Z,96808.34
2019-02-21T13:40:51.753Z,96800.52
2019-02-21T13:43:19.278Z,96811.04
2019-02-21T13:45:45.471Z,96804.40
2019-02-21T13:48:11.637Z,96802.90
2019-02-21T13:50:40.433Z,96797.34
2019-02-21T13:53:06.675Z,96787.42
2019-02-21T13:55:32.906Z,96798.35
2019-02-21T13:58:00.554Z,96806.14
2019-02-21T14:00:26.884Z,96805.61
2019-02-21T14:02:53.017Z,96806.39
2019-02-21T14:05:20.930Z,96806.22
2019-02-21T14:07:47.097Z,96808.17
2019-02-21T14:10:13.466Z,96813.39
2019-02-21T14:12:39.646Z,96808.95
2019-02-21T14:15:26.982Z,96797.98
2019-02-21T14:17:53.100Z,96791.72
2019-02-21T14:20:19.322Z,96797.02
2019-02-21T14:22:45.419Z,96799.38
2019-02-21T14:25:11.636Z,96807.36
2019-02-21T14:27:41.370Z,96808.63
2019-02-21T14:30:13.003Z,96804.87
2019-02-21T14:32:39.190Z,96802.42
2019-02-21T14:35:07.903Z,96804.59
2019-02-21T14:37:39.069Z,96808.49
2019-02-21T14:40:07.038Z,96805.56
2019-02-21T14:42:33.269Z,96799.17
2019-02-21T14:44:59.472Z,96805.20
2019-02-21T14:47:25.832Z,96806.95
2019-02-21T14:49:52.095Z,96812.36
2019-02-21T14:52:18.298Z,96809.63
2019-02-21T14:54:44.636Z,96811.83
2019-02-21T14:57:10.927Z,96813.63
2019-02-21T14:59:44.629Z,96806.86
2019-02-21T15:02:10.292Z,96802.52
2019-02-21T15:04:38.279Z,96798.62
2019-02-21T15:07:06.607Z,96803.19
2019-02-21T15:09:33.129Z,96804.16
2019-02-21T15:11:59.356Z,96799.47
2019-02-21T15:14:25.720Z,96794.53
2019-02-21T15:16:51.922Z,96794.87
2019-02-21T15:19:18.040Z,96797.78
2019-02-21T15:21:45.413Z,96794.35
2019-02-21T15:24:13.124Z,96799.66
2019-02-21T15:26:39.962Z,96796.16
2019-02-21T15:29:06.141Z,96787.80
2019-02-21T15:31:32.282Z,96796.44
2019-02-21T15:33:58.555Z,96797.28
2019-02-21T15:36:24.837Z,96793.59
2019-02-21T15:38:51.108Z,96790.88
2019-02-21T15:41:17.473Z,96791.48
2019-02-21T15:43:43.726Z,96800.97
2019-02-21T15:46:10.240Z,96796.69
2019-02-21T15:48:40.805Z,96799.37
2019-02-21T15:51:12.662Z,96802.88
2019-02-21T15:53:40.267Z,96797.65
2019-02-21T15:56:06.613Z,96805.00
2019-02-21T15:58:32.977Z,96796.89
2019-02-21T16:00:59.147Z,96790.47
2019-02-21T16:03:27.499Z,96807.48
2019-02-21T16:05:53.678Z,96809.30
2019-02-21T16:08:19.842Z,96803.91
2019-02-21T16:10:46.031Z,96807.77
2019-02-21T16:13:12.301Z,96821.06
2019-02-21T16:15:38.522Z,96824.67
2019-02-21T16:18:07.386Z,96821.92
2019-02-21T16:20:33.545Z,96818.84
2019-02-21T16:22:59.858Z,96835.83
2019-02-21T16:25:30.519Z,96833.95
2019-02-21T16:27:56.765Z,96832.04
2019-02-21T16:30:22.953Z,96831.70
2019-02-21T16:32:53.906Z,96838.75
2019-02-21T16:35:20.094Z,96832.41
2019-02-21T16:37:46.349Z,96833.98
2019-02-21T16:40:43.423Z,96836.86
2019-02-21T16:43:09.595Z,96840.94
2019-02-21T16:45:43.721Z,96831.25
2019-02-21T16:48:05.137Z,96827.43
2019-02-21T16:50:31.318Z,96836.42
2019-02-21T16:52:57.545Z,96843.94
2019-02-21T16:55:23.749Z,96848.73
2019-02-21T16:57:49.949Z,96841.43
2019-02-21T17:00:38.891Z,96843.25
2019-02-21T17:02:56.580Z,96850.64
2019-02-21T17:05:23.007Z,96852.08
2019-02-21T17:07:49.245Z,96857.84
2019-02-21T17:10:15.662Z,96859.75
2019-02-21T17:12:41.852Z,96861.31
2019-02-21T17:15:10.267Z,96867.77
2019-02-21T17:17:36.647Z,96872.06
2019-02-21T17:20:05.908Z,96867.89
2019-02-21T17:22:32.137Z,96865.03
2019-02-21T17:24:58.317Z,96879.86
2019-02-21T17:27:27.914Z,96875.08
2019-02-21T17:29:54.469Z,96881.33
2019-02-21T17:32:23.736Z,96885.75
2019-02-21T17:34:50.012Z,96888.62
2019-02-21T17:37:24.621Z,96889.80
2019-02-21T17:39:44.858Z,96893.63
2019-02-21T17:42:11.066Z,96891.23
2019-02-21T17:44:37.229Z,96897.31
2019-02-21T17:47:03.440Z,96901.02
2019-02-21T17:49:30.287Z,96897.08
2019-02-21T17:52:01.002Z,96908.75
2019-02-21T17:54:27.812Z,96901.95
2019-02-21T17:56:54.153Z,96905.54
2019-02-21T17:59:20.320Z,96913.77
2019-02-21T18:01:46.487Z,96915.32
2019-02-21T18:04:14.437Z,96913.05
2019-02-21T18:06:45.538Z,96914.59
2019-02-21T18:09:11.686Z,96913.15
2019-02-21T18:11:37.931Z,96916.23
2019-02-21T18:14:04.343Z,96914.50
2019-02-21T18:16:30.507Z,96908.44
2019-02-21T18:18:56.742Z,96906.88
2019-02-21T18:21:23.001Z,96906.88
2019-02-21T18:23:49.213Z,96897.55
2019-02-21T18:26:15.444Z,96894.33
2019-02-21T18:28:41.891Z,96896.56
2019-02-21T18:31:21.859Z,96890.84
2019-02-21T18:33:52.062Z,96896.83
2019-02-21T18:36:22.364Z,96893.47
2019-02-21T18:38:48.622Z,96894.44
2019-02-21T18:41:14.828Z,96892.16
2019-02-21T18:43:41.092Z,96901.23
2019-02-21T18:46:09.170Z,96893.13
2019-02-21T18:48:35.480Z,96899.69
2019-02-21T18:51:01.609Z,96896.33
2019-02-21T18:53:31.294Z,96892.04
2019-02-21T18:55:57.571Z,96891.77
2019-02-21T18:58:23.957Z,96899.18
2019-02-21T19:00:54.041Z,96895.59
2019-02-21T19:03:21.130Z,96889.77
2019-02-21T19:05:51.424Z,96890.72
2019-02-21T19:08:17.534Z,96893.34
2019-02-21T19:10:43.759Z,96891.19
2019-02-21T19:13:09.850Z,96886.17
2019-02-21T19:15:36.178Z,96887.02
2019-02-21T19:18:02.362Z,96889.06
2019-02-21T19:20:28.671Z,96885.95
2019-02-21T19:22:54.877Z,96893.01
2019-02-21T19:25:21.020Z,96881.66
2019-02-21T19:27:47.275Z,96883.70
2019-02-21T19:30:17.323Z,96886.33
2019-02-21T19:32:43.562Z,96886.21
2019-02-21T19:35:09.749Z,96884.41
2019-02-21T19:37:36.090Z,96883.47
2019-02-21T19:40:05.208Z,96883.82
2019-02-21T19:42:31.508Z,96885.14
2019-02-21T19:44:57.690Z,96883.48
2019-02-21T19:47:23.941Z,96890.16
2019-02-21T19:49:51.623Z,96891.28
2019-02-21T19:52:19.547Z,96882.90
2019-02-21T19:54:45.782Z,96880.53
2019-02-21T19:57:11.995Z,96884.25
2019-02-21T19:59:38.119Z,96894.14
2019-02-21T20:02:08.656Z,96905.27
2019-02-21T20:04:36.985Z,96893.56
2019-02-21T20:07:08.406Z,96892.02
2019-02-21T20:09:34.767Z,96885.06
2019-02-21T20:12:01.019Z,96890.81
2019-02-21T20:14:30.589Z,96896.66
2019-02-21T20:16:59.714Z,96897.16
2019-02-21T20:19:28.775Z,96892.59
2019-02-21T20:21:55.027Z,96896.42
2019-02-21T20:24:21.244Z,96895.84
2019-02-21T20:26:52.872Z,96894.99
2019-02-21T20:29:19.090Z,96883.05
2019-02-21T20:31:45.354Z,96889.77
2019-02-21T20:34:12.988Z,96884.52
2019-02-21T20:36:50.459Z,96887.96
2019-02-21T20:39:07.775Z,96890.59
2019-02-21T20:41:34.393Z,96894.80
2019-02-21T20:44:03.411Z,96889.31
2019-02-21T20:46:33.412Z,96893.59
2019-02-21T20:49:01.683Z,96897.27
2019-02-21T20:51:27.977Z,96888.20
2019-02-21T20:53:54.208Z,96888.31
2019-02-21T20:56:25.468Z,96885.33
2019-02-21T20:58:52.732Z,96888.31
2019-02-21T21:01:22.861Z,96891.44
2019-02-21T21:03:49.122Z,96890.35
2019-02-21T21:06:15.211Z,96889.73
2019-02-21T21:08:44.328Z,96899.05
2019-02-21T21:11:13.126Z,96902.14
2019-02-21T21:13:44.167Z,96893.67
2019-02-21T21:16:14.406Z,96894.80
2019-02-21T21:18:40.777Z,96894.45
2019-02-21T21:21:10.638Z,96898.39
2019-02-21T21:23:36.844Z,96886.69
2019-02-21T21:26:03.224Z,96892.05
2019-02-21T21:28:29.537Z,96892.55
2019-02-21T21:30:55.701Z,96899.47
2019-02-21T21:33:21.943Z,96895.41
2019-02-21T21:35:48.128Z,96897.55
2019-02-21T21:38:23.693Z,96901.63
2019-02-21T21:40:42.467Z,96904.26
2019-02-21T21:43:08.565Z,96904.26
2019-02-21T21:45:34.789Z,96908.05
2019-02-21T21:48:01.703Z,96914.49
2019-02-21T21:50:29.014Z,96919.39
2019-02-21T21:52:55.175Z,96921.91
2019-02-21T21:55:23.708Z,96917.50
2019-02-21T21:57:49.917Z,96926.92
2019-02-21T22:00:21.128Z,96919.05
2019-02-21T22:02:47.443Z,96922.72
2019-02-21T22:05:13.667Z,96922.36
2019-02-21T22:07:42.612Z,96914.13
2019-02-21T22:10:13.052Z,96910.19
2019-02-21T22:12:39.223Z,96913.17
2019-02-21T22:15:08.703Z,96907.80
2019-02-21T22:17:34.853Z,96912.94
2019-02-21T22:20:00.994Z,96904.20
2019-02-21T22:22:27.217Z,96912.08
2019-02-21T22:24:56.543Z,96909.45
2019-02-21T22:27:24.822Z,96904.43
2019-02-21T22:29:51.205Z,96904.31
2019-02-21T22:32:17.425Z,96903.47
2019-02-21T22:34:43.755Z,96903.70
2019-02-21T22:37:09.918Z,96913.63
2019-02-21T22:39:36.167Z,96907.17
2019-02-21T22:42:03.757Z,96907.17
2019-02-21T22:44:31.749Z,96905.97
2019-02-21T22:46:57.986Z,96910.65
2019-02-21T22:49:24.076Z,96911.95
2019-02-21T22:51:50.271Z,96903.70
2019-02-21T22:54:18.578Z,96904.19
2019-02-21T22:56:47.605Z,96904.55
2019-02-21T22:59:17.564Z,96903.70
2019-02-21T23:01:43.847Z,96903.34
2019-02-21T23:04:14.570Z,96905.51
2019-02-21T23:06:52.482Z,96901.45
2019-02-21T23:09:28.309Z,96898.22
2019-02-21T23:11:54.679Z,96904.19
2019-02-21T23:14:20.788Z,96898.83
2019-02-21T23:16:47.008Z,96903.70
2019-02-21T23:19:13.792Z,96903.70
2019-02-21T23:21:39.991Z,96894.39
2019-02-21T23:24:06.085Z,96900.14
2019-02-21T23:26:32.424Z,96899.18
2019-02-21T23:29:00.807Z,96900.96
2019-02-21T23:31:27.011Z,96908.95
2019-02-21T23:33:59.308Z,96891.77
2019-02-21T23:36:25.518Z,96890.84
2019-02-21T23:38:51.625Z,96898.22
2019-02-21T23:41:20.885Z,96897.28
2019-02-21T23:43:47.350Z,96891.66
2019-02-21T23:46:13.728Z,96896.55
2019-02-21T23:48:43.745Z,96895.98
2019-02-21T23:51:11.818Z,96897.99
2019-02-21T23:53:37.920Z,96902.42
2019-02-21T23:56:11.832Z,96898.22
2019-02-21T23:58:37.924Z,96893.81
